sensor_id;sensor_type;location;lat;lon;timestamp;P1;durP1;ratioP1;P2;durP2;ratioP2
13415;SDS011;6779;50.150;8.680;2023-06-22T00:01:02;7.93;;;6.73;;
13415;SDS011;6779;50.150;8.680;2023-06-22T00:03:27;7.97;;;7.20;;
13415;SDS011;6779;50.150;8.680;2023-06-22T00:05:52;7.33;;;6.63;;
13415;SDS011;6779;50.150;8.680;2023-06-22T00:08:18;7.13;;;6.53;;
13415;SDS011;6779;50.150;8.680;2023-06-22T00:10:44;7.67;;;6.87;;
13415;SDS011;6779;50.150;8.680;2023-06-22T00:13:10;7.53;;;6.83;;
13415;SDS011;6779;50.150;8.680;2023-06-22T00:15:36;7.90;;;7.07;;
13415;SDS011;6779;50.150;8.680;2023-06-22T00:18:04;8.90;;;7.70;;
13415;SDS011;6779;50.150;8.680;2023-06-22T00:20:32;8.47;;;7.23;;
13415;SDS011;6779;50.150;8.680;2023-06-22T00:23:01;7.83;;;7.03;;
13415;SDS011;6779;50.150;8.680;2023-06-22T00:25:28;8.13;;;7.33;;
13415;SDS011;6779;50.150;8.680;2023-06-22T00:27:53;7.77;;;7.07;;
13415;SDS011;6779;50.150;8.680;2023-06-22T00:30:18;8.10;;;7.30;;
13415;SDS011;6779;50.150;8.680;2023-06-22T00:32:44;7.87;;;7.03;;
13415;SDS011;6779;50.150;8.680;2023-06-22T00:35:10;8.10;;;7.10;;
13415;SDS011;6779;50.150;8.680;2023-06-22T00:37:37;8.17;;;7.20;;
13415;SDS011;6779;50.150;8.680;2023-06-22T00:40:03;7.43;;;6.73;;
13415;SDS011;6779;50.150;8.680;2023-06-22T00:42:30;8.60;;;7.07;;
13415;SDS011;6779;50.150;8.680;2023-06-22T00:44:55;8.30;;;7.50;;
13415;SDS011;6779;50.150;8.680;2023-06-22T00:47:20;8.13;;;7.33;;
13415;SDS011;6779;50.150;8.680;2023-06-22T00:49:47;7.50;;;6.80;;
13415;SDS011;6779;50.150;8.680;2023-06-22T00:52:13;7.80;;;7.00;;
13415;SDS011;6779;50.150;8.680;2023-06-22T00:54:40;7.80;;;7.07;;
13415;SDS011;6779;50.150;8.680;2023-06-22T00:57:11;8.03;;;6.97;;
13415;SDS011;6779;50.150;8.680;2023-06-22T00:59:37;8.07;;;7.27;;
13415;SDS011;6779;50.150;8.680;2023-06-22T01:02:04;7.40;;;6.70;;
13415;SDS011;6779;50.150;8.680;2023-06-22T01:04:36;7.60;;;6.90;;
13415;SDS011;6779;50.150;8.680;2023-06-22T01:12:43;8.00;;;7.20;;
13415;SDS011;6779;50.150;8.680;2023-06-22T01:15:11;8.00;;;6.93;;
13415;SDS011;6779;50.150;8.680;2023-06-22T01:17:41;8.87;;;7.80;;
13415;SDS011;6779;50.150;8.680;2023-06-22T01:20:08;11.07;;;8.17;;
13415;SDS011;6779;50.150;8.680;2023-06-22T01:22:38;12.70;;;9.10;;
13415;SDS011;6779;50.150;8.680;2023-06-22T01:27:56;9.87;;;8.77;;
13415;SDS011;6779;50.150;8.680;2023-06-22T01:30:26;9.83;;;8.93;;
13415;SDS011;6779;50.150;8.680;2023-06-22T01:32:53;12.40;;;9.97;;
13415;SDS011;6779;50.150;8.680;2023-06-22T01:35:19;13.00;;;9.90;;
13415;SDS011;6779;50.150;8.680;2023-06-22T01:37:45;11.37;;;10.17;;
13415;SDS011;6779;50.150;8.680;2023-06-22T01:40:10;11.13;;;10.03;;
13415;SDS011;6779;50.150;8.680;2023-06-22T01:42:36;12.20;;;11.00;;
13415;SDS011;6779;50.150;8.680;2023-06-22T01:45:02;12.03;;;10.83;;
13415;SDS011;6779;50.150;8.680;2023-06-22T01:47:28;11.67;;;10.57;;
13415;SDS011;6779;50.150;8.680;2023-06-22T01:49:53;13.03;;;11.63;;
13415;SDS011;6779;50.150;8.680;2023-06-22T01:52:19;12.33;;;11.13;;
13415;SDS011;6779;50.150;8.680;2023-06-22T01:54:48;13.73;;;11.50;;
13415;SDS011;6779;50.150;8.680;2023-06-22T01:57:13;12.87;;;10.83;;
13415;SDS011;6779;50.150;8.680;2023-06-22T01:59:44;12.50;;;11.30;;
13415;SDS011;6779;50.150;8.680;2023-06-22T02:02:14;12.33;;;11.03;;
13415;SDS011;6779;50.150;8.680;2023-06-22T02:04:48;11.57;;;10.43;;
13415;SDS011;6779;50.150;8.680;2023-06-22T02:07:17;11.83;;;10.57;;
13415;SDS011;6779;50.150;8.680;2023-06-22T02:09:46;11.70;;;10.57;;
13415;SDS011;6779;50.150;8.680;2023-06-22T02:12:12;11.87;;;10.67;;
13415;SDS011;6779;50.150;8.680;2023-06-22T02:14:38;12.10;;;10.83;;
13415;SDS011;6779;50.150;8.680;2023-06-22T02:17:04;12.40;;;11.10;;
13415;SDS011;6779;50.150;8.680;2023-06-22T02:19:32;11.60;;;10.50;;
13415;SDS011;6779;50.150;8.680;2023-06-22T02:22:01;11.10;;;9.97;;
13415;SDS011;6779;50.150;8.680;2023-06-22T02:24:26;13.00;;;11.70;;
13415;SDS011;6779;50.150;8.680;2023-06-22T02:26:51;13.03;;;11.73;;
13415;SDS011;6779;50.150;8.680;2023-06-22T02:29:17;12.90;;;11.33;;
13415;SDS011;6779;50.150;8.680;2023-06-22T02:31:42;12.37;;;11.17;;
13415;SDS011;6779;50.150;8.680;2023-06-22T02:34:08;12.00;;;10.80;;
13415;SDS011;6779;50.150;8.680;2023-06-22T02:36:33;11.83;;;10.63;;
13415;SDS011;6779;50.150;8.680;2023-06-22T02:38:59;11.43;;;10.27;;
13415;SDS011;6779;50.150;8.680;2023-06-22T02:41:26;11.73;;;10.63;;
13415;SDS011;6779;50.150;8.680;2023-06-22T02:43:52;12.53;;;11.23;;
13415;SDS011;6779;50.150;8.680;2023-06-22T02:46:17;12.43;;;11.03;;
13415;SDS011;6779;50.150;8.680;2023-06-22T02:48:42;12.90;;;11.60;;
13415;SDS011;6779;50.150;8.680;2023-06-22T02:51:07;11.63;;;10.23;;
13415;SDS011;6779;50.150;8.680;2023-06-22T02:53:33;11.50;;;10.40;;
13415;SDS011;6779;50.150;8.680;2023-06-22T02:55:58;11.93;;;10.73;;
13415;SDS011;6779;50.150;8.680;2023-06-22T02:58:26;11.73;;;10.53;;
13415;SDS011;6779;50.150;8.680;2023-06-22T03:00:51;12.83;;;11.10;;
13415;SDS011;6779;50.150;8.680;2023-06-22T03:03:19;12.73;;;11.43;;
13415;SDS011;6779;50.150;8.680;2023-06-22T03:05:45;12.23;;;11.13;;
13415;SDS011;6779;50.150;8.680;2023-06-22T03:08:10;13.80;;;11.10;;
13415;SDS011;6779;50.150;8.680;2023-06-22T03:10:35;11.33;;;10.23;;
13415;SDS011;6779;50.150;8.680;2023-06-22T03:13:01;13.53;;;11.23;;
13415;SDS011;6779;50.150;8.680;2023-06-22T03:15:26;12.23;;;11.13;;
13415;SDS011;6779;50.150;8.680;2023-06-22T03:17:54;12.00;;;10.90;;
13415;SDS011;6779;50.150;8.680;2023-06-22T03:20:19;11.93;;;10.73;;
13415;SDS011;6779;50.150;8.680;2023-06-22T03:22:45;13.63;;;12.23;;
13415;SDS011;6779;50.150;8.680;2023-06-22T03:25:10;12.97;;;11.43;;
13415;SDS011;6779;50.150;8.680;2023-06-22T03:27:38;12.13;;;10.93;;
13415;SDS011;6779;50.150;8.680;2023-06-22T03:30:03;12.30;;;11.03;;
13415;SDS011;6779;50.150;8.680;2023-06-22T03:32:29;13.03;;;11.73;;
13415;SDS011;6779;50.150;8.680;2023-06-22T03:34:54;12.93;;;11.67;;
13415;SDS011;6779;50.150;8.680;2023-06-22T03:37:23;12.80;;;11.37;;
13415;SDS011;6779;50.150;8.680;2023-06-22T03:39:52;12.83;;;10.90;;
13415;SDS011;6779;50.150;8.680;2023-06-22T03:42:18;12.93;;;11.33;;
13415;SDS011;6779;50.150;8.680;2023-06-22T03:44:43;12.10;;;10.90;;
13415;SDS011;6779;50.150;8.680;2023-06-22T03:47:08;12.87;;;11.47;;
13415;SDS011;6779;50.150;8.680;2023-06-22T03:49:34;14.00;;;11.97;;
13415;SDS011;6779;50.150;8.680;2023-06-22T03:52:00;12.27;;;11.00;;
13415;SDS011;6779;50.150;8.680;2023-06-22T03:54:27;11.80;;;10.40;;
13415;SDS011;6779;50.150;8.680;2023-06-22T03:56:56;12.67;;;11.47;;
13415;SDS011;6779;50.150;8.680;2023-06-22T03:59:22;12.30;;;11.00;;
13415;SDS011;6779;50.150;8.680;2023-06-22T04:01:47;13.40;;;11.57;;
13415;SDS011;6779;50.150;8.680;2023-06-22T04:04:13;14.27;;;12.80;;
13415;SDS011;6779;50.150;8.680;2023-06-22T04:06:38;13.70;;;12.33;;
13415;SDS011;6779;50.150;8.680;2023-06-22T04:09:05;14.40;;;11.87;;
13415;SDS011;6779;50.150;8.680;2023-06-22T04:11:31;14.37;;;12.87;;
13415;SDS011;6779;50.150;8.680;2023-06-22T04:13:56;13.43;;;12.03;;
13415;SDS011;6779;50.150;8.680;2023-06-22T04:16:21;13.23;;;11.93;;
13415;SDS011;6779;50.150;8.680;2023-06-22T04:18:47;13.20;;;11.90;;
13415;SDS011;6779;50.150;8.680;2023-06-22T04:21:12;13.43;;;11.47;;
13415;SDS011;6779;50.150;8.680;2023-06-22T04:23:38;13.40;;;12.13;;
13415;SDS011;6779;50.150;8.680;2023-06-22T04:26:03;13.40;;;12.10;;
13415;SDS011;6779;50.150;8.680;2023-06-22T04:28:28;11.83;;;10.63;;
13415;SDS011;6779;50.150;8.680;2023-06-22T04:30:54;11.97;;;10.77;;
13415;SDS011;6779;50.150;8.680;2023-06-22T04:33:23;13.40;;;11.37;;
13415;SDS011;6779;50.150;8.680;2023-06-22T04:35:48;13.27;;;11.77;;
13415;SDS011;6779;50.150;8.680;2023-06-22T04:38:13;14.90;;;11.70;;
13415;SDS011;6779;50.150;8.680;2023-06-22T04:40:39;12.07;;;10.87;;
13415;SDS011;6779;50.150;8.680;2023-06-22T04:43:04;12.23;;;11.10;;
13415;SDS011;6779;50.150;8.680;2023-06-22T04:45:31;11.47;;;10.37;;
13415;SDS011;6779;50.150;8.680;2023-06-22T04:47:57;12.50;;;10.70;;
13415;SDS011;6779;50.150;8.680;2023-06-22T04:50:22;12.43;;;11.00;;
13415;SDS011;6779;50.150;8.680;2023-06-22T04:52:48;12.30;;;11.03;;
13415;SDS011;6779;50.150;8.680;2023-06-22T04:55:14;13.83;;;12.43;;
13415;SDS011;6779;50.150;8.680;2023-06-22T04:57:44;12.83;;;11.53;;
13415;SDS011;6779;50.150;8.680;2023-06-22T05:00:14;12.37;;;11.07;;
13415;SDS011;6779;50.150;8.680;2023-06-22T05:02:43;13.17;;;11.83;;
13415;SDS011;6779;50.150;8.680;2023-06-22T05:05:10;13.47;;;12.17;;
13415;SDS011;6779;50.150;8.680;2023-06-22T05:07:38;13.87;;;12.47;;
13415;SDS011;6779;50.150;8.680;2023-06-22T05:10:08;14.17;;;12.60;;
13415;SDS011;6779;50.150;8.680;2023-06-22T05:12:35;15.03;;;12.83;;
13415;SDS011;6779;50.150;8.680;2023-06-22T05:15:00;13.47;;;12.10;;
13415;SDS011;6779;50.150;8.680;2023-06-22T05:17:26;13.13;;;11.80;;
13415;SDS011;6779;50.150;8.680;2023-06-22T05:19:52;13.80;;;12.33;;
13415;SDS011;6779;50.150;8.680;2023-06-22T05:22:17;13.63;;;11.40;;
13415;SDS011;6779;50.150;8.680;2023-06-22T05:24:43;14.23;;;11.77;;
13415;SDS011;6779;50.150;8.680;2023-06-22T05:27:08;13.13;;;11.83;;
13415;SDS011;6779;50.150;8.680;2023-06-22T05:29:34;13.33;;;11.80;;
13415;SDS011;6779;50.150;8.680;2023-06-22T05:32:00;12.80;;;11.27;;
13415;SDS011;6779;50.150;8.680;2023-06-22T05:34:25;13.97;;;12.17;;
13415;SDS011;6779;50.150;8.680;2023-06-22T05:36:50;13.33;;;11.77;;
13415;SDS011;6779;50.150;8.680;2023-06-22T05:39:16;12.90;;;11.60;;
13415;SDS011;6779;50.150;8.680;2023-06-22T05:41:41;14.30;;;12.77;;
13415;SDS011;6779;50.150;8.680;2023-06-22T05:44:08;14.80;;;12.93;;
13415;SDS011;6779;50.150;8.680;2023-06-22T05:46:33;18.00;;;14.33;;
13415;SDS011;6779;50.150;8.680;2023-06-22T05:48:58;14.53;;;13.00;;
13415;SDS011;6779;50.150;8.680;2023-06-22T05:51:24;13.70;;;12.30;;
13415;SDS011;6779;50.150;8.680;2023-06-22T05:53:49;14.10;;;12.40;;
13415;SDS011;6779;50.150;8.680;2023-06-22T05:56:18;15.07;;;13.47;;
13415;SDS011;6779;50.150;8.680;2023-06-22T05:58:43;15.10;;;13.50;;
13415;SDS011;6779;50.150;8.680;2023-06-22T06:01:08;15.07;;;12.77;;
13415;SDS011;6779;50.150;8.680;2023-06-22T06:03:34;17.23;;;12.73;;
13415;SDS011;6779;50.150;8.680;2023-06-22T06:06:06;14.30;;;12.90;;
13415;SDS011;6779;50.150;8.680;2023-06-22T06:08:31;14.07;;;12.67;;
13415;SDS011;6779;50.150;8.680;2023-06-22T06:10:57;15.63;;;13.10;;
13415;SDS011;6779;50.150;8.680;2023-06-22T06:13:22;14.43;;;12.77;;
13415;SDS011;6779;50.150;8.680;2023-06-22T06:15:47;14.40;;;12.37;;
13415;SDS011;6779;50.150;8.680;2023-06-22T06:18:13;13.13;;;11.77;;
13415;SDS011;6779;50.150;8.680;2023-06-22T06:20:38;13.93;;;12.53;;
13415;SDS011;6779;50.150;8.680;2023-06-22T06:23:03;13.17;;;11.87;;
13415;SDS011;6779;50.150;8.680;2023-06-22T06:25:29;13.80;;;11.40;;
13415;SDS011;6779;50.150;8.680;2023-06-22T06:27:54;14.60;;;13.00;;
13415;SDS011;6779;50.150;8.680;2023-06-22T06:30:20;12.60;;;11.40;;
13415;SDS011;6779;50.150;8.680;2023-06-22T06:32:47;13.87;;;12.40;;
13415;SDS011;6779;50.150;8.680;2023-06-22T06:35:13;13.37;;;11.87;;
13415;SDS011;6779;50.150;8.680;2023-06-22T06:37:40;12.97;;;11.67;;
13415;SDS011;6779;50.150;8.680;2023-06-22T06:40:06;15.77;;;12.70;;
13415;SDS011;6779;50.150;8.680;2023-06-22T06:42:35;14.03;;;11.97;;
13415;SDS011;6779;50.150;8.680;2023-06-22T06:45:00;13.30;;;11.97;;
13415;SDS011;6779;50.150;8.680;2023-06-22T06:47:26;12.47;;;11.27;;
13415;SDS011;6779;50.150;8.680;2023-06-22T06:49:51;12.83;;;11.53;;
13415;SDS011;6779;50.150;8.680;2023-06-22T06:52:16;14.03;;;11.87;;
13415;SDS011;6779;50.150;8.680;2023-06-22T06:54:42;12.60;;;11.37;;
13415;SDS011;6779;50.150;8.680;2023-06-22T06:57:07;13.27;;;11.33;;
13415;SDS011;6779;50.150;8.680;2023-06-22T06:59:35;14.10;;;12.70;;
13415;SDS011;6779;50.150;8.680;2023-06-22T07:02:01;17.77;;;12.93;;
13415;SDS011;6779;50.150;8.680;2023-06-22T07:04:26;15.27;;;12.03;;
13415;SDS011;6779;50.150;8.680;2023-06-22T07:06:52;13.80;;;12.20;;
13415;SDS011;6779;50.150;8.680;2023-06-22T07:09:17;11.97;;;10.33;;
13415;SDS011;6779;50.150;8.680;2023-06-22T07:11:43;12.20;;;11.10;;
13415;SDS011;6779;50.150;8.680;2023-06-22T07:14:09;12.10;;;10.33;;
13415;SDS011;6779;50.150;8.680;2023-06-22T07:16:34;12.90;;;11.60;;
13415;SDS011;6779;50.150;8.680;2023-06-22T07:18:59;13.43;;;11.20;;
13415;SDS011;6779;50.150;8.680;2023-06-22T07:21:25;13.10;;;10.83;;
13415;SDS011;6779;50.150;8.680;2023-06-22T07:23:50;11.60;;;10.53;;
13415;SDS011;6779;50.150;8.680;2023-06-22T07:26:15;12.17;;;11.07;;
13415;SDS011;6779;50.150;8.680;2023-06-22T07:28:41;13.13;;;11.47;;
13415;SDS011;6779;50.150;8.680;2023-06-22T07:31:07;11.77;;;10.57;;
13415;SDS011;6779;50.150;8.680;2023-06-22T07:33:32;11.87;;;10.70;;
13415;SDS011;6779;50.150;8.680;2023-06-22T07:35:58;13.20;;;12.00;;
13415;SDS011;6779;50.150;8.680;2023-06-22T07:38:23;12.73;;;11.23;;
13415;SDS011;6779;50.150;8.680;2023-06-22T07:40:48;12.30;;;11.10;;
13415;SDS011;6779;50.150;8.680;2023-06-22T07:43:14;13.73;;;11.87;;
13415;SDS011;6779;50.150;8.680;2023-06-22T07:45:39;13.90;;;12.40;;
13415;SDS011;6779;50.150;8.680;2023-06-22T07:48:05;13.13;;;11.73;;
13415;SDS011;6779;50.150;8.680;2023-06-22T07:50:31;12.63;;;11.33;;
13415;SDS011;6779;50.150;8.680;2023-06-22T07:52:57;14.80;;;12.03;;
13415;SDS011;6779;50.150;8.680;2023-06-22T07:55:22;13.63;;;12.33;;
13415;SDS011;6779;50.150;8.680;2023-06-22T07:57:48;14.23;;;11.53;;
13415;SDS011;6779;50.150;8.680;2023-06-22T08:00:14;14.40;;;12.60;;
13415;SDS011;6779;50.150;8.680;2023-06-22T08:02:41;13.87;;;11.67;;
13415;SDS011;6779;50.150;8.680;2023-06-22T08:05:07;14.77;;;13.23;;
13415;SDS011;6779;50.150;8.680;2023-06-22T08:07:36;14.70;;;12.27;;
13415;SDS011;6779;50.150;8.680;2023-06-22T08:10:04;13.77;;;12.20;;
13415;SDS011;6779;50.150;8.680;2023-06-22T08:12:30;13.03;;;11.83;;
13415;SDS011;6779;50.150;8.680;2023-06-22T08:14:55;13.83;;;12.47;;
13415;SDS011;6779;50.150;8.680;2023-06-22T08:17:22;12.67;;;11.30;;
13415;SDS011;6779;50.150;8.680;2023-06-22T08:19:49;13.13;;;11.73;;
13415;SDS011;6779;50.150;8.680;2023-06-22T08:22:15;15.83;;;12.33;;
13415;SDS011;6779;50.150;8.680;2023-06-22T08:24:41;15.40;;;12.97;;
13415;SDS011;6779;50.150;8.680;2023-06-22T08:27:09;19.27;;;12.70;;
13415;SDS011;6779;50.150;8.680;2023-06-22T08:29:36;15.37;;;11.43;;
13415;SDS011;6779;50.150;8.680;2023-06-22T08:32:02;13.43;;;11.93;;
13415;SDS011;6779;50.150;8.680;2023-06-22T08:34:27;12.37;;;11.00;;
13415;SDS011;6779;50.150;8.680;2023-06-22T08:36:53;11.70;;;10.50;;
13415;SDS011;6779;50.150;8.680;2023-06-22T08:39:19;13.17;;;11.97;;
13415;SDS011;6779;50.150;8.680;2023-06-22T08:41:45;12.87;;;11.67;;
13415;SDS011;6779;50.150;8.680;2023-06-22T08:44:11;12.97;;;11.50;;
13415;SDS011;6779;50.150;8.680;2023-06-22T08:46:36;13.53;;;12.20;;
13415;SDS011;6779;50.150;8.680;2023-06-22T08:49:03;13.33;;;12.13;;
13415;SDS011;6779;50.150;8.680;2023-06-22T08:51:29;12.57;;;11.27;;
13415;SDS011;6779;50.150;8.680;2023-06-22T08:53:54;12.27;;;11.07;;
13415;SDS011;6779;50.150;8.680;2023-06-22T08:56:19;13.20;;;11.83;;
13415;SDS011;6779;50.150;8.680;2023-06-22T08:58:45;13.03;;;11.73;;
13415;SDS011;6779;50.150;8.680;2023-06-22T09:01:10;13.73;;;10.83;;
13415;SDS011;6779;50.150;8.680;2023-06-22T09:03:35;12.30;;;11.00;;
13415;SDS011;6779;50.150;8.680;2023-06-22T09:06:02;12.33;;;11.23;;
13415;SDS011;6779;50.150;8.680;2023-06-22T09:08:28;12.93;;;10.90;;
13415;SDS011;6779;50.150;8.680;2023-06-22T09:10:53;13.13;;;10.75;;
13415;SDS011;6779;50.150;8.680;2023-06-22T09:13:18;12.80;;;10.35;;
13415;SDS011;6779;50.150;8.680;2023-06-22T09:15:44;11.77;;;10.68;;
13415;SDS011;6779;50.150;8.680;2023-06-22T09:18:12;12.15;;;10.95;;
13415;SDS011;6779;50.150;8.680;2023-06-22T09:20:38;10.60;;;9.70;;
13415;SDS011;6779;50.150;8.680;2023-06-22T09:23:03;11.10;;;10.20;;
13415;SDS011;6779;50.150;8.680;2023-06-22T09:25:29;11.88;;;10.80;;
13415;SDS011;6779;50.150;8.680;2023-06-22T09:27:54;11.48;;;10.38;;
13415;SDS011;6779;50.150;8.680;2023-06-22T09:30:19;11.13;;;10.02;;
13415;SDS011;6779;50.150;8.680;2023-06-22T09:32:45;11.45;;;10.43;;
13415;SDS011;6779;50.150;8.680;2023-06-22T09:35:10;10.55;;;9.55;;
13415;SDS011;6779;50.150;8.680;2023-06-22T09:37:37;9.70;;;8.80;;
13415;SDS011;6779;50.150;8.680;2023-06-22T09:40:03;10.63;;;9.60;;
13415;SDS011;6779;50.150;8.680;2023-06-22T09:42:33;11.35;;;10.18;;
13415;SDS011;6779;50.150;8.680;2023-06-22T09:44:59;9.88;;;8.93;;
13415;SDS011;6779;50.150;8.680;2023-06-22T09:47:24;10.40;;;9.40;;
13415;SDS011;6779;50.150;8.680;2023-06-22T09:49:50;9.55;;;8.65;;
13415;SDS011;6779;50.150;8.680;2023-06-22T09:52:15;10.15;;;9.07;;
13415;SDS011;6779;50.150;8.680;2023-06-22T09:54:40;10.68;;;9.70;;
13415;SDS011;6779;50.150;8.680;2023-06-22T09:57:06;9.43;;;8.73;;
13415;SDS011;6779;50.150;8.680;2023-06-22T09:59:31;10.45;;;9.45;;
13415;SDS011;6779;50.150;8.680;2023-06-22T10:01:57;9.25;;;8.55;;
13415;SDS011;6779;50.150;8.680;2023-06-22T10:04:22;10.80;;;9.77;;
13415;SDS011;6779;50.150;8.680;2023-06-22T10:06:48;9.70;;;8.90;;
13415;SDS011;6779;50.150;8.680;2023-06-22T10:09:13;9.80;;;8.98;;
13415;SDS011;6779;50.150;8.680;2023-06-22T10:11:38;9.77;;;8.88;;
13415;SDS011;6779;50.150;8.680;2023-06-22T10:14:04;9.60;;;8.70;;
13415;SDS011;6779;50.150;8.680;2023-06-22T10:16:32;8.98;;;7.78;;
13415;SDS011;6779;50.150;8.680;2023-06-22T10:18:58;10.52;;;8.30;;
13415;SDS011;6779;50.150;8.680;2023-06-22T10:21:23;8.48;;;7.78;;
13415;SDS011;6779;50.150;8.680;2023-06-22T10:23:49;8.07;;;7.38;;
13415;SDS011;6779;50.150;8.680;2023-06-22T10:26:14;7.80;;;7.10;;
13415;SDS011;6779;50.150;8.680;2023-06-22T10:28:40;10.15;;;7.65;;
13415;SDS011;6779;50.150;8.680;2023-06-22T10:31:05;8.85;;;8.05;;
13415;SDS011;6779;50.150;8.680;2023-06-22T10:33:30;8.43;;;7.72;;
13415;SDS011;6779;50.150;8.680;2023-06-22T10:35:56;9.00;;;8.20;;
13415;SDS011;6779;50.150;8.680;2023-06-22T10:38:21;8.07;;;7.40;;
13415;SDS011;6779;50.150;8.680;2023-06-22T10:40:46;8.23;;;7.57;;
13415;SDS011;6779;50.150;8.680;2023-06-22T10:43:12;9.18;;;8.10;;
13415;SDS011;6779;50.150;8.680;2023-06-22T10:45:37;9.02;;;8.10;;
13415;SDS011;6779;50.150;8.680;2023-06-22T10:48:02;9.48;;;8.70;;
13415;SDS011;6779;50.150;8.680;2023-06-22T10:50:28;8.88;;;8.07;;
13415;SDS011;6779;50.150;8.680;2023-06-22T10:52:53;9.80;;;9.00;;
13415;SDS011;6779;50.150;8.680;2023-06-22T10:55:19;8.95;;;8.00;;
13415;SDS011;6779;50.150;8.680;2023-06-22T10:57:44;8.80;;;8.00;;
13415;SDS011;6779;50.150;8.680;2023-06-22T11:00:12;8.70;;;7.90;;
13415;SDS011;6779;50.150;8.680;2023-06-22T11:02:38;7.85;;;7.15;;
13415;SDS011;6779;50.150;8.680;2023-06-22T11:05:03;8.38;;;6.82;;
13415;SDS011;6779;50.150;8.680;2023-06-22T11:07:29;7.13;;;6.53;;
13415;SDS011;6779;50.150;8.680;2023-06-22T11:09:54;7.40;;;6.80;;
13415;SDS011;6779;50.150;8.680;2023-06-22T11:12:20;7.43;;;6.55;;
13415;SDS011;6779;50.150;8.680;2023-06-22T11:14:45;7.35;;;6.65;;
13415;SDS011;6779;50.150;8.680;2023-06-22T11:17:10;7.72;;;7.03;;
13415;SDS011;6779;50.150;8.680;2023-06-22T11:19:36;8.10;;;7.40;;
13415;SDS011;6779;50.150;8.680;2023-06-22T11:22:01;7.47;;;6.88;;
13415;SDS011;6779;50.150;8.680;2023-06-22T11:24:27;7.93;;;7.20;;
13415;SDS011;6779;50.150;8.680;2023-06-22T11:26:52;7.60;;;6.90;;
13415;SDS011;6779;50.150;8.680;2023-06-22T11:29:17;8.15;;;7.03;;
13415;SDS011;6779;50.150;8.680;2023-06-22T11:31:43;8.13;;;6.72;;
13415;SDS011;6779;50.150;8.680;2023-06-22T11:34:08;8.88;;;8.00;;
13415;SDS011;6779;50.150;8.680;2023-06-22T11:36:33;7.20;;;6.60;;
13415;SDS011;6779;50.150;8.680;2023-06-22T11:39:00;8.52;;;7.25;;
13415;SDS011;6779;50.150;8.680;2023-06-22T11:41:26;10.50;;;7.43;;
13415;SDS011;6779;50.150;8.680;2023-06-22T11:43:51;8.30;;;7.57;;
13415;SDS011;6779;50.150;8.680;2023-06-22T11:46:16;8.68;;;7.75;;
13415;SDS011;6779;50.150;8.680;2023-06-22T11:48:42;9.30;;;7.82;;
13415;SDS011;6779;50.150;8.680;2023-06-22T11:51:07;9.00;;;7.93;;
13415;SDS011;6779;50.150;8.680;2023-06-22T11:53:33;8.75;;;8.00;;
13415;SDS011;6779;50.150;8.680;2023-06-22T11:55:59;9.43;;;8.60;;
13415;SDS011;6779;50.150;8.680;2023-06-22T11:58:25;9.35;;;8.48;;
13415;SDS011;6779;50.150;8.680;2023-06-22T12:00:50;9.43;;;8.52;;
13415;SDS011;6779;50.150;8.680;2023-06-22T12:03:16;9.70;;;8.82;;
13415;SDS011;6779;50.150;8.680;2023-06-22T12:05:42;10.55;;;8.75;;
13415;SDS011;6779;50.150;8.680;2023-06-22T12:08:07;9.70;;;8.70;;
13415;SDS011;6779;50.150;8.680;2023-06-22T12:10:32;9.80;;;8.82;;
13415;SDS011;6779;50.150;8.680;2023-06-22T12:12:58;9.95;;;8.85;;
13415;SDS011;6779;50.150;8.680;2023-06-22T12:15:24;10.57;;;8.48;;
13415;SDS011;6779;50.150;8.680;2023-06-22T12:17:50;9.25;;;8.40;;
13415;SDS011;6779;50.150;8.680;2023-06-22T12:20:15;9.60;;;8.60;;
13415;SDS011;6779;50.150;8.680;2023-06-22T12:22:41;9.80;;;8.80;;
13415;SDS011;6779;50.150;8.680;2023-06-22T12:25:07;9.40;;;8.40;;
13415;SDS011;6779;50.150;8.680;2023-06-22T12:27:33;10.55;;;8.73;;
13415;SDS011;6779;50.150;8.680;2023-06-22T12:29:58;10.40;;;8.57;;
13415;SDS011;6779;50.150;8.680;2023-06-22T12:32:23;11.80;;;8.48;;
13415;SDS011;6779;50.150;8.680;2023-06-22T12:34:50;10.52;;;8.52;;
13415;SDS011;6779;50.150;8.680;2023-06-22T12:37:15;12.40;;;9.27;;
13415;SDS011;6779;50.150;8.680;2023-06-22T12:39:41;10.30;;;9.18;;
13415;SDS011;6779;50.150;8.680;2023-06-22T12:42:06;11.15;;;9.00;;
13415;SDS011;6779;50.150;8.680;2023-06-22T12:44:33;12.80;;;9.27;;
13415;SDS011;6779;50.150;8.680;2023-06-22T12:46:59;10.40;;;9.40;;
13415;SDS011;6779;50.150;8.680;2023-06-22T12:49:24;12.27;;;8.57;;
13415;SDS011;6779;50.150;8.680;2023-06-22T12:51:49;13.57;;;10.25;;
13415;SDS011;6779;50.150;8.680;2023-06-22T12:54:15;12.07;;;9.13;;
13415;SDS011;6779;50.150;8.680;2023-06-22T12:56:40;13.07;;;9.32;;
13415;SDS011;6779;50.150;8.680;2023-06-22T12:59:07;13.98;;;9.00;;
13415;SDS011;6779;50.150;8.680;2023-06-22T13:01:32;11.70;;;9.30;;
13415;SDS011;6779;50.150;8.680;2023-06-22T13:03:58;11.77;;;9.00;;
13415;SDS011;6779;50.150;8.680;2023-06-22T13:06:23;10.38;;;8.43;;
13415;SDS011;6779;50.150;8.680;2023-06-22T13:08:49;14.02;;;8.70;;
13415;SDS011;6779;50.150;8.680;2023-06-22T13:11:14;12.02;;;8.70;;
13415;SDS011;6779;50.150;8.680;2023-06-22T13:13:40;10.73;;;8.73;;
13415;SDS011;6779;50.150;8.680;2023-06-22T13:16:05;11.57;;;8.40;;
13415;SDS011;6779;50.150;8.680;2023-06-22T13:18:30;11.60;;;8.73;;
13415;SDS011;6779;50.150;8.680;2023-06-22T13:20:56;8.80;;;7.97;;
13415;SDS011;6779;50.150;8.680;2023-06-22T13:23:23;10.57;;;9.27;;
13415;SDS011;6779;50.150;8.680;2023-06-22T13:25:48;11.35;;;9.13;;
13415;SDS011;6779;50.150;8.680;2023-06-22T13:28:14;15.93;;;9.65;;
13415;SDS011;6779;50.150;8.680;2023-06-22T13:30:40;11.40;;;9.43;;
13415;SDS011;6779;50.150;8.680;2023-06-22T13:33:06;10.52;;;8.93;;
13415;SDS011;6779;50.150;8.680;2023-06-22T13:35:31;10.18;;;9.10;;
13415;SDS011;6779;50.150;8.680;2023-06-22T13:37:56;12.75;;;10.55;;
13415;SDS011;6779;50.150;8.680;2023-06-22T13:40:22;11.68;;;9.10;;
13415;SDS011;6779;50.150;8.680;2023-06-22T13:42:47;11.25;;;9.30;;
13415;SDS011;6779;50.150;8.680;2023-06-22T13:45:12;11.55;;;9.20;;
13415;SDS011;6779;50.150;8.680;2023-06-22T13:47:38;12.35;;;9.40;;
13415;SDS011;6779;50.150;8.680;2023-06-22T13:50:03;13.38;;;9.43;;
13415;SDS011;6779;50.150;8.680;2023-06-22T13:52:29;11.60;;;8.52;;
13415;SDS011;6779;50.150;8.680;2023-06-22T13:54:54;11.30;;;8.75;;
13415;SDS011;6779;50.150;8.680;2023-06-22T13:57:19;13.75;;;8.82;;
13415;SDS011;6779;50.150;8.680;2023-06-22T13:59:45;12.13;;;8.90;;
13415;SDS011;6779;50.150;8.680;2023-06-22T14:02:10;11.23;;;9.00;;
13415;SDS011;6779;50.150;8.680;2023-06-22T14:04:35;12.68;;;9.77;;
13415;SDS011;6779;50.150;8.680;2023-06-22T14:07:01;10.65;;;8.95;;
13415;SDS011;6779;50.150;8.680;2023-06-22T14:09:26;10.05;;;9.00;;
13415;SDS011;6779;50.150;8.680;2023-06-22T14:11:53;11.18;;;9.35;;
13415;SDS011;6779;50.150;8.680;2023-06-22T14:14:19;10.18;;;9.02;;
13415;SDS011;6779;50.150;8.680;2023-06-22T14:16:44;11.27;;;9.65;;
13415;SDS011;6779;50.150;8.680;2023-06-22T14:19:10;10.40;;;8.90;;
13415;SDS011;6779;50.150;8.680;2023-06-22T14:21:35;9.80;;;8.57;;
13415;SDS011;6779;50.150;8.680;2023-06-22T14:24:00;10.07;;;8.80;;
13415;SDS011;6779;50.150;8.680;2023-06-22T14:26:26;11.35;;;9.00;;
13415;SDS011;6779;50.150;8.680;2023-06-22T14:28:53;14.25;;;9.02;;
13415;SDS011;6779;50.150;8.680;2023-06-22T14:31:18;11.52;;;9.18;;
13415;SDS011;6779;50.150;8.680;2023-06-22T14:33:45;11.60;;;8.80;;
13415;SDS011;6779;50.150;8.680;2023-06-22T14:36:12;14.20;;;8.40;;
13415;SDS011;6779;50.150;8.680;2023-06-22T14:38:37;14.23;;;8.30;;
13415;SDS011;6779;50.150;8.680;2023-06-22T14:41:02;14.45;;;7.90;;
13415;SDS011;6779;50.150;8.680;2023-06-22T14:43:28;14.50;;;8.20;;